CheckWX is a tool to help pilots better visualize weather data.  It is not intended as a substitute for an official pre-flight weather briefing.

16:57:21 UTC

KDVN METAR
Davenport Municipal Airport
Davenport, Iowa, USA
Current

42 mins ago

KDVN 251615Z AUTO 27017KT 5SM BR OVC010 M01/M03 A2994 RMK AO2 T10061028
Observed
Jan-25 @ 16:15 UTC
Wind
  • 270° at 17 KTS
Visibility
5 SM
Flight Rules
MVFR
Conditions
Mist
Cloud Levels
  • Overcast at 1,000' AGL
Temperature
-1°C / 30°F
Dewpoint
-3°C / 27°F
Humidity
86%
Altimeter
29.94" Hg
Pressure
1013.92 hPa
Previous

1 hour ago

KDVN 251552Z AUTO 27015KT 5SM BR OVC009 M01/M02 A2994 RMK AO2 SLP142 T10061022
Observed
Jan-25 @ 15:52 UTC
Wind
  • 270° at 15 KTS
Visibility
5 SM
Flight Rules
IFR
Conditions
Mist
Cloud Levels
  • Overcast at 900' AGL
Temperature
-1°C / 30°F
Dewpoint
-2°C / 28°F
Humidity
93%
Altimeter
29.94" Hg
Pressure
1013.92 hPa
Previous

1 hour ago

KDVN 251538Z AUTO 28018KT 5SM BR OVC009 M01/M03 A2994 RMK AO2 T10061028
Observed
Jan-25 @ 15:38 UTC
Wind
  • 280° at 18 KTS
Visibility
5 SM
Flight Rules
IFR
Conditions
Mist
Cloud Levels
  • Overcast at 900' AGL
Temperature
-1°C / 30°F
Dewpoint
-3°C / 27°F
Humidity
86%
Altimeter
29.94" Hg
Pressure
1013.92 hPa